Time;durP1;ratioP1;P1;durP2;ratioP2;P2;SDS_P1;SDS_P2;PMS_P1;PMS_P2;Temp;Humidity;BMP_temperature;BMP_pressure;BME280_temperature;BME280_humidity;BME280_pressure;Samples;Min_cycle;Max_cycle;Signal;HPM_P1;HPM_P2
2021/01/21 00:00:39;;;;;;;6.30;5.60;;;5.20;99.90;;;;;;5023908;28;20265;-78
2021/01/21 00:03:05;;;;;;;6.20;4.57;;;5.20;99.90;;;;;;5023890;28;20204;-78
2021/01/21 00:05:32;;;;;;;6.20;4.80;;;5.30;99.90;;;;;;5006871;28;20677;-78
2021/01/21 00:07:58;;;;;;;5.97;4.80;;;5.20;99.90;;;;;;4993607;28;20520;-78
2021/01/21 00:10:24;;;;;;;8.03;4.47;;;5.20;99.90;;;;;;5024568;28;20375;-77
2021/01/21 00:12:51;;;;;;;8.20;5.33;;;5.20;99.90;;;;;;4982072;28;20523;-78
2021/01/21 00:15:18;;;;;;;11.00;5.60;;;5.20;99.90;;;;;;5020604;28;20380;-78
2021/01/21 00:17:44;;;;;;;10.27;4.10;;;5.20;99.90;;;;;;5018367;28;20516;-78
2021/01/21 00:20:11;;;;;;;5.83;4.07;;;5.20;99.90;;;;;;5002586;28;20387;-78
2021/01/21 00:22:37;;;;;;;6.50;4.70;;;5.10;99.90;;;;;;5021101;28;20437;-78
2021/01/21 00:25:04;;;;;;;6.90;4.13;;;5.20;99.90;;;;;;5004284;28;20400;-78
2021/01/21 00:27:30;;;;;;;8.97;5.70;;;5.20;99.90;;;;;;5003224;28;20169;-78
2021/01/21 00:29:56;;;;;;;5.57;5.07;;;5.20;99.90;;;;;;5003635;28;20379;-78
2021/01/21 00:32:21;;;;;;;10.50;6.50;;;5.20;99.90;;;;;;5022015;28;20168;-77
2021/01/21 00:34:47;;;;;;;7.93;4.63;;;5.20;99.90;;;;;;5021361;28;20256;-77
2021/01/21 00:37:13;;;;;;;9.97;6.80;;;5.20;99.90;;;;;;5003208;28;20173;-78
2021/01/21 00:39:39;;;;;;;12.10;6.27;;;5.20;99.90;;;;;;5001774;28;20177;-78
2021/01/21 00:42:05;;;;;;;10.87;5.67;;;5.20;99.90;;;;;;5018791;28;20389;-78
2021/01/21 00:44:32;;;;;;;11.20;5.50;;;5.20;99.90;;;;;;5018414;28;20177;-78
2021/01/21 00:46:58;;;;;;;6.40;5.17;;;5.10;99.90;;;;;;5018283;28;20193;-78
2021/01/21 00:49:24;;;;;;;6.30;4.33;;;5.00;99.90;;;;;;4968435;28;20394;-78
2021/01/21 00:51:49;;;;;;;9.97;4.70;;;4.90;99.90;;;;;;5018481;28;20165;-78
2021/01/21 00:54:15;;;;;;;5.40;4.10;;;4.80;99.90;;;;;;4985246;28;20173;-78
2021/01/21 00:56:41;;;;;;;6.93;4.97;;;4.70;99.90;;;;;;5001160;28;20165;-78
2021/01/21 00:59:07;;;;;;;4.13;3.47;;;4.60;99.90;;;;;;4985114;28;20174;-78
2021/01/21 01:01:34;;;;;;;4.73;4.20;;;4.60;99.90;;;;;;5018168;28;20411;-78
2021/01/21 01:03:59;;;;;;;4.70;3.57;;;4.50;99.90;;;;;;5000615;28;20457;-78
2021/01/21 01:06:25;;;;;;;4.37;3.97;;;4.50;99.90;;;;;;5000363;28;20534;-78
2021/01/21 01:08:51;;;;;;;7.47;3.70;;;4.50;99.90;;;;;;5017435;28;20161;-78
2021/01/21 01:11:17;;;;;;;6.10;4.00;;;4.50;99.90;;;;;;4984142;28;20622;-78
2021/01/21 01:13:42;;;;;;;6.90;4.40;;;4.50;99.90;;;;;;5011486;28;20200;-78
2021/01/21 01:16:10;;;;;;;4.10;3.30;;;4.60;99.90;;;;;;5037136;28;20176;-78
2021/01/21 01:18:36;;;;;;;5.60;4.07;;;4.60;99.90;;;;;;5018801;28;20161;-78
2021/01/21 01:21:04;;;;;;;7.00;3.90;;;4.60;99.90;;;;;;5002276;28;20404;-78
2021/01/21 01:23:31;;;;;;;4.73;4.33;;;4.60;99.90;;;;;;5019136;28;20168;-78
2021/01/21 01:25:57;;;;;;;6.80;6.20;;;4.60;99.90;;;;;;5018481;28;20451;-78
2021/01/21 01:28:24;;;;;;;5.87;4.93;;;4.60;99.90;;;;;;5002917;28;20371;-78
2021/01/21 01:30:49;;;;;;;4.60;4.20;;;4.60;99.90;;;;;;5018572;28;20374;-78
2021/01/21 01:33:15;;;;;;;4.63;4.13;;;4.60;99.90;;;;;;5002607;28;20448;-78
2021/01/21 01:35:41;;;;;;;4.57;4.17;;;4.60;99.90;;;;;;5015527;28;20173;-78
2021/01/21 01:38:07;;;;;;;5.40;4.90;;;4.70;99.90;;;;;;5027018;28;20169;-78
2021/01/21 01:40:33;;;;;;;7.00;4.60;;;4.70;99.90;;;;;;5034922;28;20184;-78
2021/01/21 01:42:58;;;;;;;9.03;4.17;;;4.70;99.90;;;;;;5002461;28;20181;-78
2021/01/21 01:45:24;;;;;;;7.27;5.30;;;4.70;99.90;;;;;;5031710;28;20205;-78
2021/01/21 01:47:52;;;;;;;8.20;4.70;;;4.70;99.90;;;;;;5002643;28;20252;-78
2021/01/21 01:50:18;;;;;;;6.17;5.57;;;4.60;99.90;;;;;;5021990;28;20418;-78
2021/01/21 01:52:44;;;;;;;5.07;4.33;;;4.60;99.90;;;;;;5003353;28;20394;-78
2021/01/21 01:55:12;;;;;;;5.30;3.53;;;4.60;99.90;;;;;;4971733;28;20193;-78
2021/01/21 01:57:39;;;;;;;5.00;4.50;;;4.50;99.90;;;;;;5003195;28;20867;-78
2021/01/21 02:00:07;;;;;;;5.73;4.20;;;4.50;99.90;;;;;;5017883;28;20385;-78
2021/01/21 02:02:32;;;;;;;7.00;5.07;;;4.50;99.90;;;;;;5003605;28;20404;-78
2021/01/21 02:05:00;;;;;;;9.97;5.00;;;4.40;99.90;;;;;;5022243;28;20456;-78
2021/01/21 02:07:26;;;;;;;10.33;6.80;;;4.40;99.90;;;;;;5023057;28;20165;-78
2021/01/21 02:09:53;;;;;;;6.60;4.47;;;4.50;99.90;;;;;;5019460;28;20421;-78
2021/01/21 02:12:47;;;;;;;5.20;4.57;;;4.40;99.90;;;;;;5005210;28;20602;-78
2021/01/21 02:15:47;;;;;;;4.93;4.43;;;4.40;99.90;;;;;;5000352;28;20446;-78
2021/01/21 02:18:36;;;;;;;5.10;4.60;;;4.30;99.90;;;;;;5018097;28;20404;-78
2021/01/21 02:21:33;;;;;;;9.10;6.13;;;4.30;99.90;;;;;;4999574;28;20390;-78
2021/01/21 02:24:34;;;;;;;4.33;3.60;;;4.30;99.90;;;;;;5028686;28;20390;-78
2021/01/21 02:27:04;;;;;;;4.83;4.43;;;4.30;99.90;;;;;;5037271;28;20449;-78
2021/01/21 02:29:32;;;;;;;6.40;4.20;;;4.40;99.90;;;;;;5020183;28;20410;-78
2021/01/21 02:32:34;;;;;;;5.70;3.83;;;4.50;99.90;;;;;;5020326;28;20395;-78
2021/01/21 02:35:05;;;;;;;4.63;3.83;;;4.50;99.90;;;;;;5005430;28;20439;-78
2021/01/21 02:37:34;;;;;;;4.33;3.50;;;4.50;99.90;;;;;;5017598;28;20371;-78
2021/01/21 02:40:03;;;;;;;4.27;3.87;;;4.60;99.90;;;;;;4999924;28;20407;-78
2021/01/21 02:42:29;;;;;;;4.50;4.13;;;4.60;99.90;;;;;;5000267;28;20458;-78
2021/01/21 02:44:56;;;;;;;4.97;3.40;;;4.60;99.90;;;;;;5017132;28;20418;-78
2021/01/21 02:47:25;;;;;;;6.03;4.30;;;4.60;99.90;;;;;;5016977;28;20188;-78
2021/01/21 02:49:51;;;;;;;4.80;4.17;;;4.70;99.90;;;;;;4983469;28;20383;-78
2021/01/21 02:52:25;;;;;;;4.57;3.20;;;4.70;99.90;;;;;;4999670;28;20465;-78
2021/01/21 02:55:07;;;;;;;5.30;3.93;;;4.70;99.90;;;;;;4998773;28;20864;-78
2021/01/21 02:57:40;;;;;;;6.20;4.30;;;4.90;99.90;;;;;;4999113;28;20404;-78
2021/01/21 03:00:09;;;;;;;4.63;4.10;;;4.90;99.90;;;;;;4999563;28;20400;-78
2021/01/21 03:02:41;;;;;;;6.90;4.93;;;5.00;99.90;;;;;;5016200;28;20500;-78
2021/01/21 03:05:08;;;;;;;6.53;4.43;;;5.10;99.90;;;;;;5014514;28;20975;-78
2021/01/21 03:07:36;;;;;;;5.13;4.40;;;5.10;99.90;;;;;;5014754;28;20371;-78
2021/01/21 03:10:06;;;;;;;4.00;3.70;;;5.10;99.90;;;;;;4999170;28;20383;-78
2021/01/21 03:12:32;;;;;;;5.25;4.80;;;5.10;99.90;;;;;;4996874;28;20406;-78
2021/01/21 03:14:58;;;;;;;6.20;4.30;;;5.10;99.90;;;;;;5013811;28;20256;-78
2021/01/21 03:17:26;;;;;;;5.87;4.70;;;5.10;99.90;;;;;;5015440;28;20161;-78
2021/01/21 03:19:52;;;;;;;3.97;3.57;;;5.20;99.90;;;;;;5001780;28;20262;-78
2021/01/21 03:22:19;;;;;;;5.53;4.00;;;5.20;99.90;;;;;;5002025;28;20380;-78
2021/01/21 03:24:45;;;;;;;3.73;3.30;;;5.10;99.90;;;;;;4997664;28;20934;-78
2021/01/21 03:27:11;;;;;;;6.70;3.83;;;5.10;99.90;;;;;;5015101;28;20445;-78
2021/01/21 03:29:37;;;;;;;3.90;3.60;;;5.20;99.90;;;;;;5015670;28;20867;-78
2021/01/21 03:32:05;;;;;;;4.77;3.93;;;5.30;99.90;;;;;;4988230;28;20165;-78
2021/01/21 03:34:30;;;;;;;5.70;4.20;;;5.30;99.90;;;;;;5023513;28;20427;-78
2021/01/21 03:36:57;;;;;;;5.87;4.30;;;5.30;99.90;;;;;;5020335;28;20390;-78
2021/01/21 03:39:23;;;;;;;9.13;5.73;;;5.30;99.90;;;;;;5021843;28;20587;-78
2021/01/21 03:41:51;;;;;;;4.57;4.17;;;5.30;99.90;;;;;;5035039;28;20442;-78
2021/01/21 03:44:17;;;;;;;5.13;4.03;;;5.30;99.90;;;;;;5032792;28;20774;-78
2021/01/21 03:46:43;;;;;;;5.13;4.50;;;5.30;99.90;;;;;;5004489;28;20419;-78
2021/01/21 03:49:09;;;;;;;5.87;3.97;;;5.30;99.90;;;;;;5003591;28;20399;-78
2021/01/21 03:51:35;;;;;;;4.80;3.67;;;5.30;99.90;;;;;;5003449;28;20397;-78
2021/01/21 03:54:01;;;;;;;4.70;3.90;;;5.30;99.90;;;;;;4993008;28;20404;-78
2021/01/21 03:56:27;;;;;;;5.00;3.50;;;5.20;99.90;;;;;;5004281;28;20184;-78
2021/01/21 03:58:53;;;;;;;6.40;3.90;;;5.30;99.90;;;;;;5020479;28;20169;-78
2021/01/21 04:01:18;;;;;;;6.37;4.63;;;5.20;99.90;;;;;;5038723;28;20168;-78
2021/01/21 04:03:44;;;;;;;6.67;4.63;;;5.10;99.90;;;;;;5020033;28;20180;-78
2021/01/21 04:06:10;;;;;;;6.90;4.33;;;5.00;99.90;;;;;;5037714;28;20196;-78
2021/01/21 04:08:36;;;;;;;3.63;2.97;;;5.00;99.90;;;;;;5021082;28;20558;-77
2021/01/21 04:11:02;;;;;;;4.17;3.87;;;5.00;99.90;;;;;;5014120;28;20491;-78
2021/01/21 04:13:28;;;;;;;6.10;4.07;;;5.00;99.90;;;;;;5022800;28;20382;-78
2021/01/21 04:15:54;;;;;;;5.70;4.77;;;5.10;99.90;;;;;;5037917;28;20771;-78
2021/01/21 04:18:20;;;;;;;8.13;4.37;;;5.10;99.90;;;;;;5020269;28;20183;-78
2021/01/21 04:20:47;;;;;;;4.70;4.20;;;5.10;99.90;;;;;;5021099;28;20247;-78
2021/01/21 04:23:12;;;;;;;5.10;3.83;;;5.10;99.90;;;;;;5019765;28;20378;-78
2021/01/21 04:25:38;;;;;;;4.27;3.87;;;5.10;99.90;;;;;;5002435;28;20419;-78
2021/01/21 04:28:04;;;;;;;4.17;3.77;;;5.10;99.90;;;;;;5002239;28;20173;-78
2021/01/21 04:30:30;;;;;;;4.00;3.70;;;5.10;99.90;;;;;;4987872;28;20185;-78
2021/01/21 04:32:57;;;;;;;6.30;4.50;;;5.10;99.90;;;;;;5006126;28;20515;-78
2021/01/21 04:35:23;;;;;;;5.80;4.20;;;5.20;99.90;;;;;;5051243;28;20382;-78
2021/01/21 04:37:49;;;;;;;3.90;3.20;;;5.20;99.90;;;;;;5056941;28;20382;-78
2021/01/21 04:40:15;;;;;;;6.47;3.70;;;5.20;99.90;;;;;;5045376;28;20487;-77
2021/01/21 04:42:41;;;;;;;5.70;3.23;;;5.20;99.90;;;;;;5041122;28;20171;-77
2021/01/21 04:45:08;;;;;;;4.93;4.40;;;5.10;99.90;;;;;;5024780;28;20780;-77
2021/01/21 04:47:35;;;;;;;4.80;4.00;;;5.20;99.90;;;;;;4985395;28;20875;-78
2021/01/21 04:50:05;;;;;;;10.30;3.57;;;5.20;99.90;;;;;;5023237;28;20372;-78
2021/01/21 04:52:37;;;;;;;3.30;3.00;;;5.20;99.90;;;;;;5022115;28;20442;-78
2021/01/21 04:55:11;;;;;;;3.73;3.27;;;5.20;99.90;;;;;;5021540;28;20444;-77
2021/01/21 04:57:45;;;;;;;6.80;3.87;;;5.30;99.90;;;;;;5022590;28;20400;-77
2021/01/21 05:00:12;;;;;;;6.33;4.20;;;5.40;99.90;;;;;;4991903;28;20373;-76
2021/01/21 05:02:40;;;;;;;5.00;3.47;;;5.50;99.90;;;;;;4989931;28;20666;-78
2021/01/21 05:05:12;;;;;;;4.97;3.50;;;5.50;99.90;;;;;;4992708;28;20514;-78
2021/01/21 05:07:40;;;;;;;4.90;4.20;;;5.60;99.90;;;;;;4979973;28;20393;-77
2021/01/21 05:10:09;;;;;;;7.73;4.63;;;5.60;99.90;;;;;;5004551;28;20398;-78
2021/01/21 05:12:56;;;;;;;3.40;3.10;;;5.60;99.90;;;;;;4972934;28;20466;-78
2021/01/21 05:15:28;;;;;;;5.10;3.93;;;5.70;99.90;;;;;;4962889;29;20388;-79
2021/01/21 05:17:54;;;;;;;4.00;3.23;;;5.70;99.90;;;;;;4946236;29;20779;-77
2021/01/21 05:20:27;;;;;;;5.30;4.00;;;5.70;99.90;;;;;;4943328;29;20402;-78
2021/01/21 05:22:59;;;;;;;4.90;3.20;;;5.70;99.90;;;;;;4924105;29;20220;-79
2021/01/21 05:25:26;;;;;;;6.37;4.47;;;5.60;99.90;;;;;;4936675;29;20937;-79
2021/01/21 05:27:53;;;;;;;3.50;3.20;;;5.70;99.90;;;;;;4905968;29;20425;-78
2021/01/21 05:30:20;;;;;;;4.27;3.13;;;5.70;99.90;;;;;;4937978;29;20426;-78
2021/01/21 05:32:47;;;;;;;8.43;4.80;;;5.70;99.90;;;;;;4934615;29;20934;-78
2021/01/21 05:35:14;;;;;;;7.10;4.20;;;5.70;99.90;;;;;;4921468;29;20431;-78
2021/01/21 05:37:43;;;;;;;9.17;4.47;;;5.60;99.90;;;;;;4922970;29;20438;-78
2021/01/21 05:40:09;;;;;;;5.20;4.00;;;5.60;99.90;;;;;;4912951;29;20842;-78
2021/01/21 05:42:37;;;;;;;8.53;3.90;;;5.60;99.90;;;;;;4920243;29;20444;-78
2021/01/21 05:45:05;;;;;;;6.17;4.10;;;5.50;99.90;;;;;;4905061;29;20416;-78
2021/01/21 05:47:31;;;;;;;4.40;4.00;;;5.50;99.90;;;;;;4981290;28;20567;-79
2021/01/21 05:49:57;;;;;;;4.67;3.80;;;5.60;99.90;;;;;;4997243;28;20437;-78
2021/01/21 05:52:26;;;;;;;3.97;3.57;;;5.60;99.90;;;;;;4979679;28;20445;-78
2021/01/21 05:54:52;;;;;;;5.13;4.43;;;5.60;99.90;;;;;;4982041;28;20441;-79
2021/01/21 05:57:19;;;;;;;5.00;4.30;;;5.70;99.90;;;;;;4966398;28;20841;-78
2021/01/21 05:59:47;;;;;;;9.77;3.07;;;5.70;99.90;;;;;;4982396;28;20499;-78
2021/01/21 06:02:16;;;;;;;3.60;3.30;;;5.70;99.90;;;;;;4982975;28;20407;-78
2021/01/21 06:04:41;;;;;;;6.43;3.20;;;5.70;99.90;;;;;;5037302;28;20475;-79
2021/01/21 06:07:10;;;;;;;9.70;3.40;;;5.80;99.90;;;;;;5037123;28;20441;-78
2021/01/21 06:09:37;;;;;;;3.93;3.53;;;5.80;99.90;;;;;;5019960;28;20252;-78
2021/01/21 06:12:05;;;;;;;5.43;3.80;;;5.70;99.90;;;;;;5026818;28;20416;-78
2021/01/21 06:14:31;;;;;;;4.20;3.63;;;5.80;99.90;;;;;;5033868;28;20896;-78
2021/01/21 06:16:57;;;;;;;5.10;4.00;;;5.80;99.90;;;;;;5023832;28;20398;-78
2021/01/21 06:19:24;;;;;;;3.73;3.40;;;5.80;99.90;;;;;;5000280;28;20386;-78
2021/01/21 06:21:56;;;;;;;7.37;4.70;;;5.90;99.90;;;;;;4984327;28;20412;-78
2021/01/21 06:24:28;;;;;;;5.70;3.70;;;5.80;99.90;;;;;;5020247;28;20437;-78
2021/01/21 06:26:55;;;;;;;6.50;5.13;;;5.80;99.90;;;;;;5035647;28;20448;-78
2021/01/21 06:29:25;;;;;;;5.37;4.47;;;5.90;99.90;;;;;;5022080;28;20472;-78
2021/01/21 06:31:55;;;;;;;5.83;4.37;;;5.90;99.90;;;;;;5036913;28;20404;-78
2021/01/21 06:34:26;;;;;;;3.40;3.10;;;5.90;99.90;;;;;;5014969;28;20429;-79
2021/01/21 06:36:57;;;;;;;4.47;3.60;;;5.90;99.90;;;;;;5008750;28;20448;-79
2021/01/21 06:39:42;;;;;;;8.93;3.83;;;5.90;99.90;;;;;;5017142;28;20453;-78
2021/01/21 06:42:14;;;;;;;5.67;3.30;;;5.90;99.90;;;;;;5017000;28;20430;-78
2021/01/21 06:44:42;;;;;;;3.10;2.90;;;6.00;99.90;;;;;;5015272;28;20934;-78
2021/01/21 06:47:08;;;;;;;3.63;3.27;;;6.00;99.90;;;;;;5002524;28;20473;-78
2021/01/21 06:49:36;;;;;;;5.57;3.60;;;6.00;99.90;;;;;;4991561;28;20418;-79
2021/01/21 06:52:04;;;;;;;3.67;3.03;;;6.10;99.90;;;;;;4998478;28;20403;-78
2021/01/21 06:54:31;;;;;;;7.57;2.80;;;6.00;99.90;;;;;;4999118;28;20443;-79
2021/01/21 06:56:57;;;;;;;3.30;2.73;;;6.00;99.90;;;;;;4996530;28;20427;-79
2021/01/21 06:59:57;;;;;;;6.33;4.20;;;6.10;99.90;;;;;;4996179;28;20450;-78
2021/01/21 07:02:39;;;;;;;3.20;3.00;;;6.00;99.90;;;;;;4984471;28;20199;-78
2021/01/21 07:05:25;;;;;;;4.47;3.10;;;6.00;99.90;;;;;;5024769;28;20509;-79
2021/01/21 07:08:03;;;;;;;4.07;3.40;;;6.00;99.90;;;;;;5008177;28;20383;-79
2021/01/21 07:10:48;;;;;;;2.70;2.50;;;5.90;99.90;;;;;;5027144;28;20779;-78
2021/01/21 07:13:18;;;;;;;3.53;3.17;;;6.00;99.90;;;;;;5050882;28;20381;-78
2021/01/21 07:15:50;;;;;;;3.53;2.63;;;6.00;99.90;;;;;;5043646;28;20416;-79
2021/01/21 07:18:24;;;;;;;3.70;3.37;;;5.90;99.90;;;;;;5032340;28;20373;-78
2021/01/21 07:21:06;;;;;;;3.53;3.00;;;6.00;99.90;;;;;;5043960;28;20517;-78
2021/01/21 07:23:48;;;;;;;3.67;3.37;;;6.00;99.90;;;;;;5039333;28;20407;-78
2021/01/21 07:26:29;;;;;;;3.73;2.80;;;6.10;99.90;;;;;;5042001;28;20425;-78
2021/01/21 07:29:14;;;;;;;2.80;2.60;;;6.10;99.90;;;;;;5048960;28;20485;-78
2021/01/21 07:32:04;;;;;;;3.13;2.80;;;6.20;99.90;;;;;;5019543;28;20444;-78
2021/01/21 07:34:40;;;;;;;3.80;3.33;;;6.20;99.90;;;;;;5055561;28;20446;-78
2021/01/21 07:37:27;;;;;;;2.70;2.47;;;6.30;99.90;;;;;;4995838;28;20415;-78
2021/01/21 07:40:06;;;;;;;5.30;2.87;;;6.30;99.90;;;;;;5016871;28;20451;-77
2021/01/21 07:42:52;;;;;;;3.30;3.10;;;6.40;99.90;;;;;;4979395;28;20411;-78
2021/01/21 07:45:25;;;;;;;2.47;2.20;;;6.40;99.90;;;;;;4980355;28;20404;-78
2021/01/21 07:47:51;;;;;;;3.73;3.03;;;6.40;99.90;;;;;;5015076;28;20425;-78
2021/01/21 07:50:33;;;;;;;2.97;2.77;;;6.40;99.90;;;;;;5018070;28;20429;-78
2021/01/21 07:53:02;;;;;;;2.83;2.43;;;6.50;99.90;;;;;;5011378;28;20415;-78
2021/01/21 07:55:30;;;;;;;3.20;2.50;;;6.40;99.90;;;;;;4978870;28;20513;-77
2021/01/21 07:58:28;;;;;;;3.30;2.70;;;6.60;99.90;;;;;;4975996;28;20417;-77
2021/01/21 08:00:57;;;;;;;4.43;2.60;;;6.60;99.90;;;;;;4991471;28;20422;-78
2021/01/21 08:03:43;;;;;;;4.30;3.50;;;6.70;99.90;;;;;;4974952;28;20459;-79
2021/01/21 08:06:15;;;;;;;2.90;2.70;;;6.70;99.90;;;;;;4965804;28;20444;-79
2021/01/21 08:08:44;;;;;;;4.27;3.20;;;6.80;99.90;;;;;;4990334;28;20415;-79
2021/01/21 08:11:15;;;;;;;4.13;3.67;;;6.80;99.90;;;;;;4992609;28;20376;-79
2021/01/21 08:13:42;;;;;;;2.67;2.47;;;6.90;99.90;;;;;;4991033;28;20407;-79
2021/01/21 08:16:12;;;;;;;2.97;2.67;;;7.00;99.90;;;;;;5006200;28;20407;-79
2021/01/21 08:18:38;;;;;;;3.33;3.00;;;7.00;99.90;;;;;;4964135;28;20395;-79
2021/01/21 08:21:25;;;;;;;3.03;2.73;;;7.10;99.90;;;;;;4983813;28;20423;-78
2021/01/21 08:24:01;;;;;;;2.47;2.27;;;7.10;99.90;;;;;;4988519;28;20448;-79
2021/01/21 08:26:31;;;;;;;3.03;2.80;;;7.20;99.90;;;;;;4994470;28;20477;-79
2021/01/21 08:28:58;;;;;;;3.00;2.37;;;7.20;99.90;;;;;;4996520;28;20863;-78
2021/01/21 08:31:43;;;;;;;2.97;2.70;;;7.20;99.90;;;;;;4958510;28;20401;-79
2021/01/21 08:34:17;;;;;;;2.53;2.33;;;7.20;99.90;;;;;;4978758;28;21077;-79
2021/01/21 08:36:44;;;;;;;4.00;2.87;;;7.30;99.90;;;;;;4957594;29;20421;-79
2021/01/21 08:39:12;;;;;;;11.07;2.53;;;7.20;99.90;;;;;;4939715;29;20437;-79
2021/01/21 08:41:40;;;;;;;3.60;2.60;;;7.20;99.90;;;;;;4973382;29;20447;-79
2021/01/21 08:44:07;;;;;;;6.00;2.77;;;7.20;99.90;;;;;;4956493;29;20871;-79
2021/01/21 08:46:33;;;;;;;5.43;2.80;;;7.30;99.90;;;;;;4969455;29;20504;-79
2021/01/21 08:49:14;;;;;;;4.33;3.07;;;7.40;99.90;;;;;;4955925;29;20437;-79
2021/01/21 08:51:44;;;;;;;4.27;3.83;;;7.40;99.90;;;;;;4952739;29;20484;-78
2021/01/21 08:54:13;;;;;;;4.93;2.50;;;7.50;99.90;;;;;;4967424;28;20412;-78
2021/01/21 08:56:40;;;;;;;5.20;2.80;;;7.40;99.90;;;;;;5010034;28;20420;-79
2021/01/21 08:59:23;;;;;;;5.43;3.63;;;7.50;99.90;;;;;;5004535;28;20408;-79
2021/01/21 09:01:49;;;;;;;6.70;4.13;;;7.60;99.90;;;;;;5001452;28;20423;-79
2021/01/21 09:04:30;;;;;;;3.43;2.40;;;7.70;99.90;;;;;;5017553;28;20457;-79
2021/01/21 09:06:59;;;;;;;3.23;2.60;;;7.90;99.90;;;;;;5054500;28;20176;-79
2021/01/21 09:09:31;;;;;;;4.33;2.27;;;8.00;99.90;;;;;;5036076;28;20427;-79
2021/01/21 09:12:17;;;;;;;2.80;2.50;;;8.10;99.90;;;;;;5047139;28;20448;-79
2021/01/21 09:14:45;;;;;;;6.20;4.10;;;8.20;99.90;;;;;;5052461;28;20406;-79
2021/01/21 09:17:14;;;;;;;3.60;2.97;;;8.40;99.90;;;;;;5018283;28;20438;-79
2021/01/21 09:19:42;;;;;;;4.60;2.87;;;9.20;99.90;;;;;;5052932;28;20394;-78
2021/01/21 09:22:15;;;;;;;4.03;3.43;;;9.30;99.90;;;;;;5018865;28;20413;-79
2021/01/21 09:24:57;;;;;;;2.83;2.60;;;9.30;99.90;;;;;;5008339;28;20430;-79
2021/01/21 09:27:24;;;;;;;2.70;2.50;;;9.10;99.90;;;;;;5005722;28;20466;-79
2021/01/21 09:30:11;;;;;;;4.83;3.83;;;9.00;99.90;;;;;;5035471;28;20925;-79
2021/01/21 09:32:40;;;;;;;3.83;2.33;;;8.90;99.90;;;;;;5014153;28;20429;-78
2021/01/21 09:35:09;;;;;;;5.33;2.63;;;8.80;99.90;;;;;;5011881;28;20401;-79
2021/01/21 09:37:40;;;;;;;3.70;3.40;;;8.80;99.90;;;;;;4987607;28;20445;-79
2021/01/21 09:40:10;;;;;;;2.40;2.20;;;8.80;99.90;;;;;;4969825;28;20865;-78
2021/01/21 09:42:36;;;;;;;2.90;2.70;;;8.80;99.90;;;;;;4978256;28;20448;-77
2021/01/21 09:45:05;;;;;;;3.67;2.67;;;8.80;99.90;;;;;;4977043;28;20764;-79
2021/01/21 09:47:31;;;;;;;2.53;2.27;;;8.80;99.90;;;;;;4992801;28;20570;-78
2021/01/21 09:49:57;;;;;;;2.87;2.40;;;8.80;99.90;;;;;;4978962;28;20425;-78
2021/01/21 09:52:22;;;;;;;3.83;2.37;;;8.90;99.90;;;;;;4996594;28;20194;-78
2021/01/21 09:54:49;;;;;;;2.73;2.50;;;8.90;99.90;;;;;;4997853;28;20177;-78
2021/01/21 09:57:15;;;;;;;3.43;2.83;;;9.00;99.90;;;;;;4984635;28;20182;-78
2021/01/21 09:59:44;;;;;;;3.17;2.17;;;9.00;99.90;;;;;;4978076;28;20449;-78
2021/01/21 10:02:12;;;;;;;3.23;2.93;;;9.10;99.90;;;;;;5005779;28;20432;-78
2021/01/21 10:04:40;;;;;;;2.50;2.20;;;9.20;99.90;;;;;;4943486;29;20452;-76
2021/01/21 10:07:08;;;;;;;2.40;1.87;;;9.30;99.90;;;;;;4947612;29;20450;-78
2021/01/21 10:09:38;;;;;;;2.27;2.07;;;9.50;99.90;;;;;;4963578;28;20408;-78
2021/01/21 10:12:13;;;;;;;1.80;1.70;;;9.60;99.90;;;;;;4933711;29;20516;-78
2021/01/21 10:14:39;;;;;;;1.70;1.60;;;9.70;99.90;;;;;;4911273;29;20418;-78
2021/01/21 10:17:08;;;;;;;2.80;2.60;;;9.90;99.90;;;;;;4948460;29;20446;-78
2021/01/21 10:19:35;;;;;;;4.00;3.07;;;10.80;99.90;;;;;;4910791;29;20180;-78
2021/01/21 10:22:01;;;;;;;2.37;2.17;;;10.80;99.90;;;;;;4934205;29;20414;-79
2021/01/21 10:24:30;;;;;;;3.53;2.83;;;11.10;99.90;;;;;;4924982;29;20443;-76
2021/01/21 10:26:56;;;;;;;4.10;3.10;;;11.00;99.90;;;;;;4942231;29;20438;-78
2021/01/21 10:29:22;;;;;;;10.43;2.60;;;11.10;99.90;;;;;;4955612;28;20474;-78
2021/01/21 10:31:48;;;;;;;5.83;2.67;;;10.80;99.90;;;;;;4963175;28;21708;-78
2021/01/21 10:34:15;;;;;;;4.13;2.50;;;10.70;99.90;;;;;;4959961;28;20544;-81
2021/01/21 10:36:40;;;;;;;1.87;1.70;;;10.60;99.90;;;;;;4959618;28;20525;-82
2021/01/21 10:39:07;;;;;;;2.80;2.40;;;10.50;99.90;;;;;;4961582;28;20442;-82
2021/01/21 10:41:33;;;;;;;2.50;2.13;;;10.50;99.90;;;;;;4957433;28;20186;-82
2021/01/21 10:44:00;;;;;;;4.23;3.30;;;10.60;99.90;;;;;;4973341;28;21075;-82
2021/01/21 10:46:26;;;;;;;3.20;2.50;;;11.00;99.90;;;;;;4981315;28;20468;-79
2021/01/21 10:48:52;;;;;;;2.00;1.90;;;11.20;99.90;;;;;;4963689;28;20439;-79
2021/01/21 10:51:21;;;;;;;3.30;2.20;;;11.70;99.90;;;;;;4962339;28;20202;-78
2021/01/21 10:53:47;;;;;;;1.87;1.70;;;12.00;99.90;;;;;;4975336;28;20190;-77
2021/01/21 10:56:17;;;;;;;2.20;2.00;;;11.70;99.90;;;;;;5011602;28;20438;-77
2021/01/21 10:58:47;;;;;;;5.73;2.30;;;11.40;99.90;;;;;;5037210;28;20418;-77
2021/01/21 11:01:13;;;;;;;2.27;2.17;;;11.30;99.90;;;;;;5040998;28;20574;-78
2021/01/21 11:03:39;;;;;;;2.80;2.10;;;11.10;99.90;;;;;;5038851;28;20459;-78
2021/01/21 11:06:05;;;;;;;2.90;2.57;;;10.90;99.90;;;;;;5038235;28;20235;-78
2021/01/21 11:08:33;;;;;;;2.93;1.90;;;10.80;99.90;;;;;;5038715;28;20538;-77
2021/01/21 11:10:59;;;;;;;2.87;2.57;;;10.70;99.90;;;;;;5040986;28;20793;-78
2021/01/21 11:13:25;;;;;;;1.90;1.80;;;10.80;99.90;;;;;;5040128;28;20430;-77
2021/01/21 11:15:51;;;;;;;1.90;1.80;;;10.90;99.90;;;;;;5005164;28;20406;-77
2021/01/21 11:18:21;;;;;;;2.63;2.30;;;10.90;99.90;;;;;;5045020;28;20466;-79
2021/01/21 11:20:47;;;;;;;4.90;2.50;;;10.80;99.90;;;;;;5041869;28;20211;-78
2021/01/21 11:23:13;;;;;;;5.03;2.50;;;10.80;99.90;;;;;;5041699;28;20417;-78
2021/01/21 11:25:39;;;;;;;6.13;2.60;;;10.70;99.90;;;;;;4988791;28;20463;-78
2021/01/21 11:28:04;;;;;;;3.63;2.07;;;10.70;99.90;;;;;;5036046;28;20465;-78
2021/01/21 11:30:31;;;;;;;3.57;2.17;;;10.70;99.90;;;;;;5020345;28;20248;-78
2021/01/21 11:33:05;;;;;;;4.03;2.30;;;10.80;99.90;;;;;;5039837;28;20453;-78
2021/01/21 11:35:31;;;;;;;3.23;2.93;;;10.90;99.90;;;;;;5043248;28;20467;-79
2021/01/21 11:37:57;;;;;;;1.60;1.50;;;10.90;99.90;;;;;;5039050;28;20401;-78
2021/01/21 11:40:23;;;;;;;2.13;1.93;;;10.90;99.90;;;;;;5013594;28;20188;-78
2021/01/21 11:42:49;;;;;;;2.33;1.93;;;10.90;99.90;;;;;;5030129;28;20191;-78
2021/01/21 11:45:15;;;;;;;5.90;2.03;;;10.90;99.90;;;;;;5031086;28;20199;-78
2021/01/21 11:47:41;;;;;;;3.20;1.97;;;10.90;99.90;;;;;;5034999;28;20471;-78
2021/01/21 11:50:11;;;;;;;2.40;2.20;;;10.90;99.90;;;;;;5032690;28;20273;-79
2021/01/21 11:52:38;;;;;;;2.47;1.77;;;10.80;99.90;;;;;;5030406;28;20439;-78
2021/01/21 11:55:05;;;;;;;2.10;1.90;;;10.80;99.90;;;;;;4957559;28;20825;-78
2021/01/21 11:57:34;;;;;;;3.17;2.50;;;10.80;99.90;;;;;;4975302;28;20453;-78
2021/01/21 12:00:03;;;;;;;1.77;1.60;;;10.80;99.90;;;;;;4959312;28;20445;-78
2021/01/21 12:02:28;;;;;;;5.00;2.20;;;10.80;99.90;;;;;;4949170;28;20448;-79
2021/01/21 12:04:54;;;;;;;2.10;1.67;;;10.80;99.90;;;;;;4978097;28;20469;-78
2021/01/21 12:07:22;;;;;;;3.23;2.30;;;10.80;99.90;;;;;;4980175;28;20217;-78
2021/01/21 12:09:48;;;;;;;1.73;1.60;;;10.80;99.90;;;;;;4991990;28;20413;-78
2021/01/21 12:12:14;;;;;;;1.70;1.60;;;10.80;99.90;;;;;;4993059;28;20195;-78
2021/01/21 12:14:40;;;;;;;7.33;4.23;;;10.80;99.90;;;;;;4977312;28;20191;-79
2021/01/21 12:17:05;;;;;;;2.23;2.03;;;10.80;99.90;;;;;;4978786;28;20201;-78
2021/01/21 12:19:32;;;;;;;5.40;2.10;;;10.80;99.90;;;;;;4979694;28;20194;-78
2021/01/21 12:21:58;;;;;;;8.20;2.67;;;10.90;99.90;;;;;;4986202;28;20206;-77
2021/01/21 12:24:24;;;;;;;3.27;1.93;;;10.80;99.90;;;;;;4990217;28;20423;-78
2021/01/21 12:26:50;;;;;;;2.30;2.10;;;10.80;99.90;;;;;;5020000;28;20216;-78
2021/01/21 12:29:15;;;;;;;1.63;1.53;;;10.80;99.90;;;;;;5035518;28;20242;-79
2021/01/21 12:31:41;;;;;;;3.80;1.83;;;10.90;99.90;;;;;;5000672;28;20201;-77
2021/01/21 12:34:07;;;;;;;2.97;2.70;;;10.90;99.90;;;;;;4993993;28;20224;-79
2021/01/21 12:36:34;;;;;;;2.80;1.80;;;10.90;99.90;;;;;;4979011;28;20194;-83
2021/01/21 12:39:03;;;;;;;5.50;2.83;;;10.80;99.90;;;;;;4983580;28;20179;-78
2021/01/21 12:41:32;;;;;;;5.10;2.10;;;10.80;99.90;;;;;;5002608;28;20437;-79
2021/01/21 12:43:58;;;;;;;2.40;2.20;;;11.00;99.90;;;;;;4999482;28;20445;-79
2021/01/21 12:46:25;;;;;;;3.90;1.57;;;11.00;99.90;;;;;;4978268;28;20520;-78
2021/01/21 12:48:51;;;;;;;4.83;2.00;;;11.00;99.90;;;;;;4969978;28;20187;-78
2021/01/21 12:51:20;;;;;;;1.90;1.67;;;11.00;99.90;;;;;;4989403;28;20445;-78
2021/01/21 12:53:45;;;;;;;1.70;1.60;;;11.10;99.90;;;;;;4989208;28;20456;-78
2021/01/21 12:56:11;;;;;;;3.53;2.70;;;11.10;99.90;;;;;;4992814;28;20425;-79
2021/01/21 12:58:37;;;;;;;3.53;1.40;;;11.20;99.90;;;;;;4996254;28;20269;-79
2021/01/21 13:01:05;;;;;;;4.07;1.60;;;11.30;99.90;;;;;;4996292;28;20178;-77
2021/01/21 13:03:31;;;;;;;2.97;2.10;;;11.40;99.90;;;;;;4983888;28;20279;-78
2021/01/21 13:06:04;;;;;;;2.10;1.70;;;11.30;99.90;;;;;;5032898;28;20524;-78